createdAt,value
2022-07-29T00:01:53.441Z,19.08
2022-07-29T00:04:25.366Z,19.06
2022-07-29T00:06:56.286Z,19.81
2022-07-29T00:09:26.058Z,19.01
2022-07-29T00:11:55.943Z,19.10
2022-07-29T00:14:26.689Z,18.94
2022-07-29T00:16:59.058Z,19.06
2022-07-29T00:19:28.801Z,18.98
2022-07-29T00:21:59.656Z,18.94
2022-07-29T00:24:29.576Z,19.08
2022-07-29T00:26:59.261Z,18.96
2022-07-29T00:29:34.150Z,18.98
2022-07-29T00:32:07.127Z,18.89
2022-07-29T00:34:49.404Z,18.74
2022-07-29T00:37:19.217Z,18.87
2022-07-29T00:39:49.016Z,18.93
2022-07-29T00:42:18.791Z,18.84
2022-07-29T00:44:49.798Z,19.02
2022-07-29T00:47:22.186Z,18.96
2022-07-29T00:49:51.967Z,18.96
2022-07-29T00:52:21.686Z,18.81
2022-07-29T00:54:51.334Z,18.99
2022-07-29T00:57:21.090Z,19.04
2022-07-29T00:59:50.731Z,18.99
2022-07-29T01:02:23.043Z,18.96
2022-07-29T01:04:53.359Z,18.93
2022-07-29T01:07:23.276Z,18.91
2022-07-29T01:09:54.581Z,18.96
2022-07-29T01:12:28.052Z,18.95
2022-07-29T01:14:59.246Z,18.91
2022-07-29T01:17:36.187Z,18.84
2022-07-29T01:20:14.118Z,18.96
2022-07-29T01:23:04.413Z,18.62
2022-07-29T01:25:55.760Z,18.78
2022-07-29T01:28:50.744Z,18.85
2022-07-29T01:31:28.643Z,18.88
2022-07-29T01:34:09.127Z,18.93
2022-07-29T01:36:43.682Z,18.80
2022-07-29T01:39:15.945Z,18.75
2022-07-29T01:41:54.496Z,18.80
2022-07-29T01:44:34.434Z,18.66
2022-07-29T01:47:09.692Z,18.71
2022-07-29T01:49:42.854Z,18.36
2022-07-29T01:52:19.529Z,18.62
2022-07-29T01:54:55.198Z,18.77
2022-07-29T01:57:31.664Z,18.77
2022-07-29T02:00:05.630Z,18.86
2022-07-29T02:02:42.903Z,18.84
2022-07-29T02:05:16.386Z,18.80
2022-07-29T02:07:50.117Z,18.82
2022-07-29T02:10:26.111Z,18.80
2022-07-29T02:12:58.663Z,18.66
2022-07-29T02:15:34.368Z,18.66
2022-07-29T02:18:08.999Z,18.86
2022-07-29T02:20:40.165Z,18.84
2022-07-29T02:23:11.090Z,18.90
2022-07-29T02:25:41.436Z,18.89
2022-07-29T02:28:12.720Z,18.70
2022-07-29T02:30:47.846Z,18.88
2022-07-29T02:33:20.972Z,18.89
2022-07-29T02:35:52.278Z,18.80
2022-07-29T02:38:36.321Z,18.75
2022-07-29T02:41:12.582Z,18.63
2022-07-29T02:43:44.704Z,18.76
2022-07-29T02:46:28.413Z,18.78
2022-07-29T02:49:03.394Z,18.63
2022-07-29T02:51:44.179Z,18.76
2022-07-29T02:54:18.527Z,18.56
2022-07-29T02:56:50.260Z,18.64
2022-07-29T02:59:25.805Z,18.83
2022-07-29T03:01:59.224Z,18.76
2022-07-29T03:04:31.757Z,18.79
2022-07-29T03:07:03.833Z,18.88
2022-07-29T03:09:34.038Z,18.79
2022-07-29T03:12:05.139Z,18.78
2022-07-29T03:14:35.700Z,18.79
2022-07-29T03:17:08.914Z,18.85
2022-07-29T03:19:39.153Z,18.81
2022-07-29T03:22:09.121Z,18.72
2022-07-29T03:24:40.530Z,18.72
2022-07-29T03:27:10.306Z,18.67
2022-07-29T03:29:40.024Z,18.55
2022-07-29T03:32:15.961Z,18.36
2022-07-29T03:34:53.614Z,18.26
2022-07-29T03:37:23.305Z,18.39
2022-07-29T03:39:54.777Z,18.38
2022-07-29T03:42:32.413Z,18.26
2022-07-29T03:45:08.853Z,18.37
2022-07-29T03:47:55.867Z,18.39
2022-07-29T03:50:28.390Z,18.21
2022-07-29T03:52:58.250Z,18.15
2022-07-29T03:55:29.216Z,18.17
2022-07-29T03:58:01.122Z,18.24
2022-07-29T04:00:31.590Z,17.98
2022-07-29T04:03:04.402Z,18.24
2022-07-29T04:05:34.134Z,18.21
2022-07-29T04:08:03.864Z,18.21
2022-07-29T04:10:34.162Z,18.20
2022-07-29T04:13:05.562Z,18.31
2022-07-29T04:15:35.339Z,18.18
2022-07-29T04:18:07.676Z,18.36
2022-07-29T04:20:37.346Z,18.30
2022-07-29T04:23:07.088Z,18.22
2022-07-29T04:25:36.772Z,18.26
2022-07-29T04:28:06.718Z,18.21
2022-07-29T04:30:37.629Z,18.03
2022-07-29T04:33:10.835Z,18.19
2022-07-29T04:35:50.547Z,18.05
2022-07-29T04:38:23.190Z,18.25
2022-07-29T04:40:52.836Z,18.09
2022-07-29T04:43:24.243Z,18.26
2022-07-29T04:45:54.746Z,18.30
2022-07-29T04:48:28.830Z,18.12
2022-07-29T04:50:58.830Z,17.90
2022-07-29T04:53:29.011Z,18.35
2022-07-29T04:55:59.244Z,18.31
2022-07-29T04:58:28.997Z,18.22
2022-07-29T05:00:58.859Z,18.14
2022-07-29T05:03:31.181Z,18.30
2022-07-29T05:06:00.961Z,18.33
2022-07-29T05:08:30.655Z,18.44
2022-07-29T05:11:11.643Z,18.45
2022-07-29T05:13:45.433Z,18.36
2022-07-29T05:16:16.730Z,18.39
2022-07-29T05:18:50.087Z,18.18
2022-07-29T05:21:19.883Z,18.02
2022-07-29T05:23:49.697Z,18.19
2022-07-29T05:26:19.447Z,18.24
2022-07-29T05:28:50.268Z,18.27
2022-07-29T05:31:20.042Z,18.04
2022-07-29T05:33:52.436Z,18.16
2022-07-29T05:36:22.231Z,18.12
2022-07-29T05:38:53.153Z,18.26
2022-07-29T05:41:23.310Z,18.23
2022-07-29T05:43:53.035Z,18.45
2022-07-29T05:46:22.883Z,18.55
2022-07-29T05:48:55.619Z,18.63
2022-07-29T05:51:26.413Z,18.47
2022-07-29T05:53:57.185Z,18.85
2022-07-29T05:56:28.097Z,18.86
2022-07-29T05:58:59.549Z,18.99
2022-07-29T06:01:30.442Z,19.10
2022-07-29T06:04:03.044Z,19.05
2022-07-29T06:06:32.907Z,18.89
2022-07-29T06:09:11.550Z,18.70
2022-07-29T06:11:42.641Z,18.95
2022-07-29T06:14:13.685Z,19.13
2022-07-29T06:16:43.813Z,19.05
2022-07-29T06:19:16.224Z,19.20
2022-07-29T06:21:46.168Z,19.13
2022-07-29T06:24:18.587Z,19.17
2022-07-29T06:26:49.757Z,19.04
2022-07-29T06:29:20.530Z,19.09
2022-07-29T06:31:50.279Z,19.18
2022-07-29T06:34:22.933Z,19.30
2022-07-29T06:36:53.883Z,19.07
2022-07-29T06:39:24.319Z,19.29
2022-07-29T06:41:55.071Z,19.24
2022-07-29T06:44:29.150Z,19.30
2022-07-29T06:46:59.949Z,19.46
2022-07-29T06:49:32.430Z,19.53
2022-07-29T06:52:02.207Z,19.10
2022-07-29T06:54:32.927Z,19.40
2022-07-29T06:57:03.703Z,19.60
2022-07-29T06:59:35.981Z,19.60
2022-07-29T07:02:08.058Z,19.49
2022-07-29T07:04:40.395Z,19.35
2022-07-29T07:07:11.228Z,19.54
2022-07-29T07:09:41.985Z,19.89
2022-07-29T07:12:12.230Z,19.93
2022-07-29T07:14:44.249Z,19.98
2022-07-29T07:17:14.041Z,19.78
2022-07-29T07:19:48.841Z,20.12
2022-07-29T07:22:18.595Z,20.25
2022-07-29T07:24:48.382Z,20.25
2022-07-29T07:27:18.383Z,20.07
2022-07-29T07:29:49.053Z,20.27
2022-07-29T07:32:20.636Z,20.39
2022-07-29T07:34:53.101Z,20.25
2022-07-29T07:37:23.124Z,20.39
2022-07-29T07:39:52.920Z,20.56
2022-07-29T07:42:24.029Z,20.50
2022-07-29T07:45:12.539Z,20.60
2022-07-29T07:47:43.970Z,20.62
2022-07-29T07:50:19.051Z,20.53
2022-07-29T07:52:52.014Z,20.56
2022-07-29T07:55:24.210Z,20.70
2022-07-29T07:57:53.957Z,20.59
2022-07-29T08:00:24.379Z,20.54
2022-07-29T08:02:55.224Z,20.63
2022-07-29T08:05:27.845Z,20.75
2022-07-29T08:07:57.577Z,20.97
2022-07-29T08:10:41.276Z,20.84
2022-07-29T08:13:13.296Z,21.52
2022-07-29T08:15:46.003Z,21.75
2022-07-29T08:18:17.301Z,21.78
2022-07-29T08:20:49.692Z,21.77
2022-07-29T08:23:20.067Z,21.72
2022-07-29T08:25:50.502Z,21.71
2022-07-29T08:28:20.541Z,21.70
2022-07-29T08:30:50.226Z,21.73
2022-07-29T08:33:21.144Z,21.91
2022-07-29T08:35:54.486Z,21.77
2022-07-29T08:38:24.407Z,22.38
2022-07-29T08:40:55.324Z,22.67
2022-07-29T08:43:25.133Z,22.72
2022-07-29T08:45:56.049Z,23.08
2022-07-29T08:48:27.145Z,23.54
2022-07-29T08:51:01.719Z,23.62
2022-07-29T08:53:33.189Z,23.62
2022-07-29T08:56:03.623Z,23.72
2022-07-29T08:58:38.396Z,23.36
2022-07-29T09:01:12.211Z,23.39
2022-07-29T09:03:44.234Z,23.65
2022-07-29T09:06:21.812Z,23.48
2022-07-29T09:08:52.605Z,23.19
2022-07-29T09:11:23.377Z,23.13
2022-07-29T09:13:53.291Z,22.99
2022-07-29T09:16:50.775Z,23.02
2022-07-29T09:19:23.878Z,23.12
2022-07-29T09:22:03.543Z,23.30
2022-07-29T09:24:43.339Z,23.21
2022-07-29T09:27:22.770Z,23.42
2022-07-29T09:30:00.749Z,23.81
2022-07-29T09:32:30.736Z,24.04
2022-07-29T09:35:22.314Z,24.05
2022-07-29T09:37:54.767Z,24.21
2022-07-29T09:40:26.933Z,23.95
2022-07-29T09:42:58.397Z,23.81
2022-07-29T09:45:32.945Z,23.49
2022-07-29T09:48:04.610Z,23.53
2022-07-29T09:50:41.461Z,23.65
2022-07-29T09:53:15.312Z,23.39
2022-07-29T09:55:51.870Z,23.81
2022-07-29T09:58:23.841Z,24.05
2022-07-29T10:00:56.058Z,24.52
2022-07-29T10:03:26.609Z,24.51
2022-07-29T10:06:11.530Z,24.36
2022-07-29T10:08:45.421Z,24.70
2022-07-29T10:11:16.947Z,24.88
2022-07-29T10:13:50.023Z,25.18
2022-07-29T10:16:20.753Z,25.47
2022-07-29T10:18:52.767Z,25.61
2022-07-29T10:21:36.453Z,25.59
2022-07-29T10:24:14.871Z,25.41
2022-07-29T10:26:48.156Z,25.73
2022-07-29T10:29:19.100Z,25.76
2022-07-29T10:32:01.065Z,25.84
2022-07-29T10:34:48.610Z,25.94
2022-07-29T10:37:26.000Z,25.90
2022-07-29T10:40:26.933Z,26.03
2022-07-29T10:43:04.554Z,26.03
2022-07-29T10:45:36.059Z,25.93
2022-07-29T10:48:09.706Z,25.88
2022-07-29T10:50:58.049Z,25.88
2022-07-29T10:53:49.234Z,25.84
2022-07-29T10:56:34.465Z,25.72
2022-07-29T10:59:32.440Z,25.24
2022-07-29T11:02:36.450Z,25.55
2022-07-29T11:05:07.243Z,25.60
2022-07-29T11:07:45.688Z,25.89
2022-07-29T11:10:31.232Z,25.74
2022-07-29T11:13:05.123Z,24.96
2022-07-29T11:15:56.534Z,25.72
2022-07-29T11:18:26.635Z,25.78
2022-07-29T11:20:57.551Z,25.28
2022-07-29T11:23:34.709Z,25.69
2022-07-29T11:26:23.343Z,25.55
2022-07-29T11:29:02.142Z,25.30
2022-07-29T11:31:42.566Z,25.71
2022-07-29T11:34:28.051Z,25.94
2022-07-29T11:37:29.482Z,25.86
2022-07-29T11:40:20.283Z,25.75
2022-07-29T11:42:55.022Z,25.92
2022-07-29T11:45:42.197Z,26.05
2022-07-29T11:51:14.273Z,26.16
2022-07-29T11:53:52.628Z,26.27
2022-07-29T11:56:25.795Z,26.30
2022-07-29T11:59:08.336Z,26.07
2022-07-29T12:02:12.183Z,25.90
2022-07-29T12:04:55.364Z,26.04
2022-07-29T12:07:33.797Z,26.25
2022-07-29T12:10:08.221Z,26.35
2022-07-29T12:12:42.338Z,26.48
2022-07-29T12:15:21.622Z,25.16
2022-07-29T12:17:56.989Z,26.16
2022-07-29T12:20:29.583Z,25.89
2022-07-29T12:23:00.610Z,26.13
2022-07-29T12:25:38.181Z,26.45
2022-07-29T12:28:10.748Z,26.40
2022-07-29T12:30:47.228Z,26.46
2022-07-29T12:33:24.640Z,26.02
2022-07-29T12:36:06.977Z,26.43
2022-07-29T12:38:44.146Z,26.54
2022-07-29T12:41:15.057Z,26.56
2022-07-29T12:43:57.248Z,26.00
2022-07-29T12:46:33.356Z,26.22
2022-07-29T12:49:06.772Z,26.41
2022-07-29T12:51:38.476Z,26.22
2022-07-29T12:54:12.068Z,26.31
2022-07-29T12:56:44.464Z,26.30
2022-07-29T12:59:20.338Z,26.38
2022-07-29T13:01:53.661Z,26.57
2022-07-29T13:04:34.356Z,26.83
2022-07-29T13:07:10.501Z,26.82
2022-07-29T13:09:42.792Z,26.97
2022-07-29T13:12:14.434Z,27.04
2022-07-29T13:14:51.350Z,27.10
2022-07-29T13:17:24.180Z,27.12
2022-07-29T13:20:13.527Z,27.02
2022-07-29T13:22:44.437Z,26.99
2022-07-29T13:25:17.209Z,26.77
2022-07-29T13:27:47.377Z,26.68
2022-07-29T13:30:18.308Z,26.83
2022-07-29T13:32:50.243Z,26.41
2022-07-29T13:35:23.389Z,26.90
2022-07-29T13:37:53.769Z,26.96
2022-07-29T13:40:26.478Z,26.91
2022-07-29T13:42:56.489Z,27.06
2022-07-29T13:45:29.298Z,27.12
2022-07-29T13:47:59.258Z,26.98
2022-07-29T13:50:31.658Z,27.02
2022-07-29T13:53:01.450Z,26.71
2022-07-29T13:55:34.915Z,27.06
2022-07-29T13:58:04.714Z,26.91
2022-07-29T14:00:34.831Z,26.99
2022-07-29T14:03:04.777Z,26.88
2022-07-29T14:05:37.430Z,26.85
2022-07-29T14:08:08.282Z,26.85
2022-07-29T14:10:39.268Z,27.03
2022-07-29T14:13:24.295Z,27.13
2022-07-29T14:15:55.941Z,27.03
2022-07-29T14:18:28.290Z,27.02
2022-07-29T14:21:01.289Z,26.95
2022-07-29T14:23:32.617Z,27.10
2022-07-29T14:26:02.398Z,26.88
2022-07-29T14:28:32.984Z,27.03
2022-07-29T14:31:03.126Z,26.91
2022-07-29T14:33:32.940Z,26.79
2022-07-29T14:36:05.507Z,27.45
2022-07-29T14:38:35.230Z,27.00
2022-07-29T14:41:05.925Z,27.04
2022-07-29T14:43:35.742Z,26.76
2022-07-29T14:46:08.469Z,26.85
2022-07-29T14:48:38.891Z,26.74
2022-07-29T14:51:11.470Z,26.77
2022-07-29T14:53:41.321Z,26.89
2022-07-29T14:56:35.574Z,26.86
2022-07-29T14:59:01.813Z,26.98
2022-07-29T15:01:32.766Z,26.94
2022-07-29T15:04:02.604Z,27.23
2022-07-29T15:06:35.099Z,27.50
2022-07-29T15:09:05.874Z,27.42
2022-07-29T15:11:38.781Z,27.66
2022-07-29T15:14:09.349Z,27.81
2022-07-29T15:16:43.745Z,27.45
2022-07-29T15:19:14.969Z,27.90
2022-07-29T15:21:49.192Z,27.73
2022-07-29T15:24:20.922Z,27.73
2022-07-29T15:26:51.675Z,27.78
2022-07-29T15:29:21.524Z,27.64
2022-07-29T15:31:51.983Z,27.63
2022-07-29T15:34:26.752Z,27.60
2022-07-29T15:36:58.980Z,27.57
2022-07-29T15:39:28.733Z,27.58
2022-07-29T15:42:00.572Z,27.80
2022-07-29T15:44:31.705Z,27.76
2022-07-29T15:47:07.485Z,27.42
2022-07-29T15:49:48.273Z,27.53
2022-07-29T15:52:24.950Z,27.52
2022-07-29T15:54:57.727Z,27.52
2022-07-29T15:57:28.818Z,27.55
2022-07-29T15:59:58.561Z,27.49
2022-07-29T16:02:28.262Z,27.41
2022-07-29T16:04:58.046Z,27.33
2022-07-29T16:07:31.288Z,27.29
2022-07-29T16:10:02.703Z,27.08
2022-07-29T16:12:34.058Z,27.24
2022-07-29T16:15:09.431Z,27.18
2022-07-29T16:17:40.476Z,27.06
2022-07-29T16:20:11.521Z,27.06
2022-07-29T16:22:46.358Z,27.06
2022-07-29T16:25:16.218Z,26.86
2022-07-29T16:27:46.000Z,26.81
2022-07-29T16:30:16.611Z,26.77
2022-07-29T16:32:46.416Z,26.86
2022-07-29T16:35:16.200Z,26.60
2022-07-29T16:37:48.507Z,26.98
2022-07-29T16:40:18.362Z,26.89
2022-07-29T16:42:48.134Z,26.92
2022-07-29T16:45:18.820Z,26.88
2022-07-29T16:47:51.237Z,26.96
2022-07-29T16:50:21.019Z,26.84
2022-07-29T16:52:53.455Z,26.19
2022-07-29T16:55:23.485Z,26.70
2022-07-29T16:57:53.914Z,26.79
2022-07-29T17:00:24.778Z,26.66
2022-07-29T17:02:54.457Z,26.78
2022-07-29T17:05:24.327Z,26.58
2022-07-29T17:07:58.537Z,26.43
2022-07-29T17:10:29.991Z,26.81
2022-07-29T17:12:59.799Z,26.85
2022-07-29T17:15:29.594Z,26.67
2022-07-29T17:18:00.770Z,26.66
2022-07-29T17:20:33.141Z,26.73
2022-07-29T17:23:05.561Z,26.73
2022-07-29T17:25:35.402Z,26.22
2022-07-29T17:28:05.189Z,26.48
2022-07-29T17:30:35.020Z,26.24
2022-07-29T17:33:04.831Z,25.89
2022-07-29T17:35:47.152Z,25.82
2022-07-29T17:38:19.520Z,25.75
2022-07-29T17:40:49.216Z,25.50
2022-07-29T17:43:19.057Z,25.49
2022-07-29T17:45:50.789Z,25.39
2022-07-29T17:48:21.056Z,25.16
2022-07-29T17:50:51.953Z,24.95
2022-07-29T17:53:24.240Z,24.86
2022-07-29T17:55:56.277Z,24.46
2022-07-29T17:58:26.079Z,24.50
2022-07-29T18:00:56.021Z,24.25
2022-07-29T18:03:27.278Z,23.86
2022-07-29T18:05:57.127Z,23.88
2022-07-29T18:08:33.083Z,23.51
2022-07-29T18:11:02.843Z,23.39
2022-07-29T18:13:32.560Z,23.22
2022-07-29T18:16:03.701Z,22.88
2022-07-29T18:18:35.121Z,22.61
2022-07-29T18:21:05.580Z,22.88
2022-07-29T18:23:38.069Z,22.45
2022-07-29T18:26:08.040Z,22.36
2022-07-29T18:28:38.847Z,22.55
2022-07-29T18:31:09.953Z,22.44
2022-07-29T18:33:40.819Z,22.14
2022-07-29T18:36:11.816Z,22.49
2022-07-29T18:38:45.543Z,22.42
2022-07-29T18:41:16.283Z,22.29
2022-07-29T18:43:48.270Z,22.33
2022-07-29T18:46:18.205Z,22.31
2022-07-29T18:48:51.045Z,22.59
2022-07-29T18:51:22.229Z,22.65
2022-07-29T18:53:55.940Z,22.62
2022-07-29T19:00:28.431Z,22.34
2022-07-29T19:02:59.962Z,21.94
2022-07-29T19:05:32.704Z,22.08
2022-07-29T19:08:05.727Z,21.98
2022-07-29T19:10:40.400Z,21.05
2022-07-29T19:13:13.642Z,20.41
2022-07-29T19:15:59.070Z,21.68
2022-07-29T19:18:29.758Z,21.52
2022-07-29T19:21:01.041Z,20.95
2022-07-29T19:24:03.819Z,20.53
2022-07-29T19:26:36.717Z,20.65
2022-07-29T19:29:07.076Z,19.90
2022-07-29T19:31:37.938Z,20.73
2022-07-29T19:34:08.797Z,20.58
2022-07-29T19:36:39.719Z,20.61
2022-07-29T19:39:10.493Z,20.68
2022-07-29T19:41:44.124Z,20.81
2022-07-29T19:44:14.189Z,20.93
2022-07-29T19:46:45.517Z,21.07
2022-07-29T19:49:15.702Z,21.02
2022-07-29T19:51:46.462Z,21.39
2022-07-29T19:54:18.314Z,21.32
2022-07-29T19:56:52.566Z,21.54
2022-07-29T19:59:24.913Z,21.34
2022-07-29T20:01:59.430Z,20.88
2022-07-29T20:04:29.351Z,21.22
2022-07-29T20:07:01.582Z,21.26
2022-07-29T20:09:32.820Z,21.44
2022-07-29T20:12:06.649Z,21.51
2022-07-29T20:14:36.385Z,21.34
2022-07-29T20:17:06.442Z,21.23
2022-07-29T20:19:36.838Z,21.03
2022-07-29T20:22:08.004Z,21.18
2022-07-29T20:24:37.824Z,21.00
2022-07-29T20:27:13.719Z,21.13
2022-07-29T20:29:43.873Z,20.99
2022-07-29T20:32:14.732Z,20.99
2022-07-29T20:34:44.434Z,20.85
2022-07-29T20:37:16.232Z,20.97
2022-07-29T20:39:47.916Z,20.88
2022-07-29T20:42:20.249Z,21.06
2022-07-29T20:44:51.232Z,20.83
2022-07-29T20:47:22.412Z,20.72
2022-07-29T20:49:53.135Z,20.78
2022-07-29T20:52:24.115Z,20.83
2022-07-29T20:54:54.890Z,20.86
2022-07-29T20:57:39.471Z,20.88
2022-07-29T21:00:12.730Z,20.77
2022-07-29T21:02:43.550Z,20.62
2022-07-29T21:05:14.352Z,20.60
2022-07-29T21:07:48.330Z,20.38
2022-07-29T21:10:23.186Z,20.45
2022-07-29T21:12:56.487Z,20.46
2022-07-29T21:15:29.049Z,20.14
2022-07-29T21:18:03.085Z,20.51
2022-07-29T21:20:33.972Z,20.58
2022-07-29T21:23:08.201Z,20.81
2022-07-29T21:25:38.935Z,20.81
2022-07-29T21:28:23.686Z,21.02
2022-07-29T21:30:54.575Z,20.99
2022-07-29T21:33:25.630Z,21.06
2022-07-29T21:36:20.339Z,20.94
2022-07-29T21:38:47.532Z,20.55
2022-07-29T21:41:18.301Z,20.80
2022-07-29T21:43:51.594Z,20.73
2022-07-29T21:46:24.650Z,20.81
2022-07-29T21:48:54.605Z,20.78
2022-07-29T21:51:25.414Z,20.84
2022-07-29T21:53:56.186Z,20.71
2022-07-29T21:56:27.721Z,20.70
2022-07-29T21:59:01.441Z,20.61
2022-07-29T22:01:39.066Z,20.66
2022-07-29T22:04:10.372Z,20.55
2022-07-29T22:06:42.225Z,20.46
2022-07-29T22:09:12.987Z,20.42
2022-07-29T22:11:43.818Z,19.99
2022-07-29T22:14:18.550Z,20.11
2022-07-29T22:16:50.559Z,20.17
2022-07-29T22:19:20.435Z,20.23
2022-07-29T22:21:52.130Z,20.16
2022-07-29T22:24:22.910Z,20.39
2022-07-29T22:26:52.566Z,20.39
2022-07-29T22:29:26.820Z,20.52
2022-07-29T22:31:56.592Z,20.48
2022-07-29T22:34:26.318Z,20.48
2022-07-29T22:37:07.048Z,20.48
2022-07-29T22:39:36.850Z,20.42
2022-07-29T22:42:06.931Z,20.72
2022-07-29T22:44:39.209Z,20.73
2022-07-29T22:47:09.221Z,20.75
2022-07-29T22:49:38.879Z,20.61
2022-07-29T22:52:09.200Z,20.66
2022-07-29T22:54:39.323Z,20.59
2022-07-29T22:57:09.096Z,20.69
2022-07-29T22:59:41.424Z,20.43
2022-07-29T23:02:11.166Z,20.29
2022-07-29T23:04:40.857Z,20.14
2022-07-29T23:07:10.536Z,20.10
2022-07-29T23:09:40.285Z,19.96
2022-07-29T23:12:11.053Z,20.29
2022-07-29T23:14:43.935Z,20.50
2022-07-29T23:17:13.735Z,20.35
2022-07-29T23:19:43.517Z,20.33
2022-07-29T23:22:14.424Z,20.29
2022-07-29T23:24:44.119Z,20.53
2022-07-29T23:27:13.778Z,20.52
2022-07-29T23:29:46.076Z,20.54
2022-07-29T23:32:15.783Z,20.45
2022-07-29T23:34:45.479Z,20.42
2022-07-29T23:37:15.138Z,20.43
2022-07-29T23:39:45.930Z,20.31
2022-07-29T23:42:15.636Z,20.27
2022-07-29T23:44:47.940Z,20.40
2022-07-29T23:47:17.691Z,20.20
2022-07-29T23:49:49.851Z,20.15
2022-07-29T23:52:19.863Z,20.22
2022-07-29T23:54:49.709Z,20.21
2022-07-29T23:57:22.839Z,20.08
2022-07-29T23:59:56.305Z,20.23
